createdAt,value
2023-05-20T00:01:39.325Z,102747.25
2023-05-20T00:04:06.122Z,102759.94
2023-05-20T00:06:33.771Z,102752.38
2023-05-20T00:09:00.550Z,102755.34
2023-05-20T00:11:27.117Z,102756.19
2023-05-20T00:13:53.601Z,102762.53
2023-05-20T00:16:20.415Z,102751.50
2023-05-20T00:18:47.136Z,102764.25
2023-05-20T00:21:13.631Z,102753.88
2023-05-20T00:23:40.760Z,102751.16
2023-05-20T00:26:07.222Z,102749.59
2023-05-20T00:28:34.014Z,102756.00
2023-05-20T00:31:00.900Z,102760.25
2023-05-20T00:33:27.589Z,102751.53
2023-05-20T00:35:54.081Z,102756.22
2023-05-20T00:38:20.766Z,102756.44
2023-05-20T00:40:47.862Z,102748.00
2023-05-20T00:43:14.639Z,102747.75
2023-05-20T00:45:41.558Z,102750.66
2023-05-20T00:48:09.657Z,102744.81
2023-05-20T00:50:36.417Z,102746.75
2023-05-20T00:53:03.968Z,102749.16
2023-05-20T00:55:30.573Z,102740.72
2023-05-20T00:57:57.580Z,102747.81
2023-05-20T01:00:24.058Z,102746.97
2023-05-20T01:02:51.129Z,102738.28
2023-05-20T01:05:17.959Z,102740.09
2023-05-20T01:07:44.683Z,102744.03
2023-05-20T01:10:11.617Z,102747.06
2023-05-20T01:12:43.930Z,102752.16
2023-05-20T01:15:12.710Z,102746.22
2023-05-20T01:17:45.030Z,102746.31
2023-05-20T01:20:14.458Z,102744.75
2023-05-20T01:22:48.473Z,102738.28
2023-05-20T01:25:15.193Z,102743.06
2023-05-20T01:27:41.817Z,102734.38
2023-05-20T01:30:09.017Z,102739.34
2023-05-20T01:32:41.203Z,102736.47
2023-05-20T01:35:08.736Z,102735.75
2023-05-20T01:37:38.582Z,102740.63
2023-05-20T01:40:09.926Z,102738.84
2023-05-20T01:42:37.686Z,102748.25
2023-05-20T01:45:04.981Z,102748.66
2023-05-20T01:47:31.846Z,102744.66
2023-05-20T01:49:58.316Z,102744.88
2023-05-20T01:52:25.008Z,102746.38
2023-05-20T01:54:51.582Z,102748.47
2023-05-20T01:57:19.719Z,102749.75
2023-05-20T01:59:47.433Z,102747.84
2023-05-20T02:02:14.740Z,102752.06
2023-05-20T02:04:47.954Z,102750.50
2023-05-20T02:07:15.614Z,102744.69
2023-05-20T02:09:42.278Z,102748.38
2023-05-20T02:12:09.430Z,102751.44
2023-05-20T02:14:36.402Z,102738.97
2023-05-20T02:17:03.438Z,102747.63
2023-05-20T02:19:30.003Z,102738.84
2023-05-20T02:21:56.821Z,102735.91
2023-05-20T02:24:23.329Z,102735.81
2023-05-20T02:26:51.268Z,102733.78
2023-05-20T02:29:17.792Z,102734.63
2023-05-20T02:31:44.433Z,102734.84
2023-05-20T02:34:10.956Z,102734.84
2023-05-20T02:36:37.533Z,102731.25
2023-05-20T02:39:04.060Z,102734.13
2023-05-20T02:41:31.871Z,102727.78
2023-05-20T02:43:58.543Z,102728.84
2023-05-20T02:46:28.184Z,102724.47
2023-05-20T02:48:54.783Z,102730.00
2023-05-20T02:51:21.769Z,102729.25
2023-05-20T02:53:48.299Z,102728.81
2023-05-20T02:56:15.279Z,102727.00
2023-05-20T02:58:42.479Z,102728.94
2023-05-20T03:01:09.362Z,102726.09
2023-05-20T03:03:38.055Z,102732.28
2023-05-20T03:06:04.725Z,102732.72
2023-05-20T03:08:31.207Z,102732.84
2023-05-20T03:10:57.994Z,102738.75
2023-05-20T03:13:24.443Z,102730.50
2023-05-20T03:15:51.350Z,102743.19
2023-05-20T03:18:17.981Z,102740.09
2023-05-20T03:20:46.263Z,102740.66
2023-05-20T03:23:12.848Z,102740.00
2023-05-20T03:25:40.746Z,102743.19
2023-05-20T03:28:07.940Z,102741.91
2023-05-20T03:30:37.006Z,102736.22
2023-05-20T03:33:05.859Z,102733.44
2023-05-20T03:35:32.935Z,102737.34
2023-05-20T03:38:01.693Z,102734.50
2023-05-20T03:40:28.808Z,102732.63
2023-05-20T03:42:55.598Z,102736.22
2023-05-20T03:45:22.334Z,102736.94
2023-05-20T03:48:03.561Z,102739.88
2023-05-20T03:50:31.942Z,102739.59
2023-05-20T03:52:58.665Z,102736.53
2023-05-20T03:55:26.207Z,102743.31
2023-05-20T03:57:52.712Z,102738.97
2023-05-20T04:00:19.433Z,102739.69
2023-05-20T04:02:48.664Z,102736.97
2023-05-20T04:05:18.513Z,102728.28
2023-05-20T04:07:46.283Z,102743.41
2023-05-20T04:10:13.612Z,102741.19
2023-05-20T04:12:40.175Z,102746.16
2023-05-20T04:15:07.890Z,102746.06
2023-05-20T04:17:48.526Z,102740.78
2023-05-20T04:20:15.472Z,102736.00
2023-05-20T04:22:41.931Z,102744.03
2023-05-20T04:25:09.851Z,102741.19
2023-05-20T04:27:39.793Z,102746.28
2023-05-20T04:30:07.305Z,102741.72
2023-05-20T04:32:38.649Z,102738.75
2023-05-20T04:35:12.088Z,102744.34
2023-05-20T04:37:42.156Z,102740.22
2023-05-20T04:40:09.571Z,102730.31
2023-05-20T04:42:37.564Z,102731.78
2023-05-20T04:45:05.943Z,102737.28
2023-05-20T04:47:38.644Z,102730.91
2023-05-20T04:50:13.549Z,102732.28
2023-05-20T04:52:45.411Z,102733.34
2023-05-20T04:55:13.002Z,102730.59
2023-05-20T04:57:41.852Z,102734.72
2023-05-20T05:00:13.442Z,102737.44
2023-05-20T05:02:40.689Z,102733.63
2023-05-20T05:05:08.118Z,102739.47
2023-05-20T05:07:34.754Z,102729.31
2023-05-20T05:10:01.739Z,102731.31
2023-05-20T05:12:30.372Z,102733.00
2023-05-20T05:14:58.766Z,102734.25
2023-05-20T05:17:26.025Z,102723.84
2023-05-20T05:19:52.904Z,102726.84
2023-05-20T05:22:19.383Z,102731.88
2023-05-20T05:24:46.331Z,102737.13
2023-05-20T05:27:12.997Z,102736.81
2023-05-20T05:29:39.947Z,102731.09
2023-05-20T05:32:07.020Z,102736.44
2023-05-20T05:34:33.936Z,102735.50
2023-05-20T05:37:00.430Z,102736.13
2023-05-20T05:39:27.208Z,102742.53
2023-05-20T05:41:54.176Z,102738.22
2023-05-20T05:44:21.244Z,102736.78
2023-05-20T05:46:48.255Z,102737.72
2023-05-20T05:49:15.161Z,102737.50
2023-05-20T05:51:41.651Z,102742.34
2023-05-20T05:54:08.457Z,102737.06
2023-05-20T05:56:34.947Z,102746.00
2023-05-20T05:59:01.723Z,102737.13
2023-05-20T06:01:28.338Z,102736.41
2023-05-20T06:03:55.292Z,102729.69
2023-05-20T06:06:22.283Z,102735.03
2023-05-20T06:08:49.284Z,102729.63
2023-05-20T06:11:16.331Z,102736.75
2023-05-20T06:13:43.111Z,102732.75
2023-05-20T06:16:09.647Z,102729.28
2023-05-20T06:18:36.140Z,102728.94
2023-05-20T06:21:04.693Z,102729.16
2023-05-20T06:23:31.501Z,102728.53
2023-05-20T06:26:01.203Z,102721.53
2023-05-20T06:28:30.207Z,102723.44
2023-05-20T06:30:57.621Z,102715.22
2023-05-20T06:33:27.433Z,102726.72
2023-05-20T06:35:58.055Z,102717.28
2023-05-20T06:38:25.344Z,102722.94
2023-05-20T06:40:51.954Z,102716.75
2023-05-20T06:43:19.354Z,102716.84
2023-05-20T06:46:04.753Z,102722.88
2023-05-20T06:48:37.316Z,102715.03
2023-05-20T06:51:06.761Z,102719.00
2023-05-20T06:53:33.581Z,102709.59
2023-05-20T06:56:00.151Z,102708.81
2023-05-20T06:58:26.999Z,102709.03
2023-05-20T07:00:56.085Z,102703.59
2023-05-20T07:03:23.519Z,102702.44
2023-05-20T07:05:51.384Z,102699.84
2023-05-20T07:08:19.442Z,102700.81
2023-05-20T07:10:46.739Z,102700.00
2023-05-20T07:13:18.327Z,102688.00
2023-05-20T07:15:48.066Z,102702.06
2023-05-20T07:18:16.489Z,102693.72
2023-05-20T07:20:45.779Z,102688.34
2023-05-20T07:23:24.456Z,102693.88
2023-05-20T07:25:53.564Z,102690.97
2023-05-20T07:28:20.837Z,102688.84
2023-05-20T07:30:50.111Z,102677.81
2023-05-20T07:33:26.067Z,102684.56
2023-05-20T07:35:54.526Z,102676.16
2023-05-20T07:38:22.072Z,102684.56
2023-05-20T07:40:55.256Z,102686.81
2023-05-20T07:43:22.217Z,102684.56
2023-05-20T07:45:48.783Z,102676.56
2023-05-20T07:48:15.560Z,102668.72
2023-05-20T07:50:42.098Z,102672.50
2023-05-20T07:53:09.300Z,102669.53
2023-05-20T07:55:36.947Z,102670.16
2023-05-20T07:58:05.086Z,102667.44
2023-05-20T08:00:33.856Z,102659.13
2023-05-20T08:03:03.961Z,102669.47
2023-05-20T08:05:43.712Z,102665.97
2023-05-20T08:08:10.682Z,102662.91
2023-05-20T08:10:51.025Z,102676.06
2023-05-20T08:13:17.780Z,102663.38
2023-05-20T08:15:44.460Z,102683.00
2023-05-20T08:18:12.039Z,102668.97
2023-05-20T08:20:38.649Z,102668.13
2023-05-20T08:23:05.437Z,102666.31
2023-05-20T08:25:31.966Z,102667.97
2023-05-20T08:28:01.957Z,102661.53
2023-05-20T08:30:28.477Z,102659.22
2023-05-20T08:32:55.312Z,102655.72
2023-05-20T08:35:24.611Z,102657.31
2023-05-20T08:37:54.007Z,102646.34
2023-05-20T08:40:22.228Z,102646.47
2023-05-20T08:42:52.679Z,102649.13
2023-05-20T08:45:21.141Z,102641.00
2023-05-20T08:47:49.061Z,102636.88
2023-05-20T08:50:16.214Z,102632.69
2023-05-20T08:52:45.368Z,102642.69
2023-05-20T08:55:16.632Z,102627.88
2023-05-20T08:57:45.971Z,102638.72
2023-05-20T09:00:16.147Z,102635.44
2023-05-20T09:02:44.992Z,102637.88
2023-05-20T09:05:11.935Z,102633.59
2023-05-20T09:07:38.808Z,102630.94
2023-05-20T09:10:06.351Z,102624.03
2023-05-20T09:12:32.915Z,102617.41
2023-05-20T09:14:59.329Z,102621.25
2023-05-20T09:17:25.954Z,102615.81
2023-05-20T09:19:53.661Z,102614.72
2023-05-20T10:12:44.596Z,102582.06
2023-05-20T10:15:28.456Z,102571.69
2023-05-20T10:18:19.753Z,102571.78
2023-05-20T10:20:47.897Z,102575.16
2023-05-20T10:23:22.563Z,102563.31
2023-05-20T10:25:54.099Z,102564.16
2023-05-20T10:28:36.470Z,102570.78
2023-05-20T10:31:14.474Z,102562.22
2023-05-20T10:33:43.018Z,102562.91
2023-05-20T10:36:09.589Z,102545.63
2023-05-20T10:38:36.194Z,102553.44
2023-05-20T10:41:11.268Z,102551.47
2023-05-20T10:43:37.866Z,102534.34
2023-05-20T10:46:07.545Z,102538.13
2023-05-20T10:48:42.217Z,102537.22
2023-05-20T10:51:14.262Z,102536.41
2023-05-20T10:53:46.239Z,102538.63
2023-05-20T10:56:20.082Z,102528.69
2023-05-20T10:58:46.654Z,102533.19
2023-05-20T11:01:16.739Z,102522.91
2023-05-20T11:03:47.979Z,102519.63
2023-05-20T11:06:18.229Z,102521.25
2023-05-20T11:08:46.215Z,102525.09
2023-05-20T11:11:13.588Z,102527.09
2023-05-20T11:13:41.088Z,102518.50
2023-05-20T11:16:07.793Z,102528.88
2023-05-20T11:18:34.525Z,102531.47
2023-05-20T11:21:02.295Z,102533.88
2023-05-20T11:23:29.958Z,102533.56
2023-05-20T11:25:57.596Z,102533.03
2023-05-20T11:28:24.522Z,102532.44
2023-05-20T11:30:52.440Z,102537.50
2023-05-20T11:33:19.593Z,102543.88
2023-05-20T11:35:54.280Z,102531.94
2023-05-20T11:38:21.924Z,102519.16
2023-05-20T11:40:54.207Z,102522.97
2023-05-20T11:43:21.938Z,102522.03
2023-05-20T11:45:55.197Z,102512.81
2023-05-20T11:48:22.397Z,102524.28
2023-05-20T11:50:49.054Z,102524.81
2023-05-20T11:53:20.541Z,102527.25
2023-05-20T11:55:47.212Z,102515.75
2023-05-20T11:58:24.854Z,102526.09
2023-05-20T12:00:57.076Z,102518.22
2023-05-20T12:03:28.939Z,102518.44
2023-05-20T12:05:55.673Z,102515.94
2023-05-20T12:08:22.818Z,102511.47
2023-05-20T12:10:49.502Z,102512.91
2023-05-20T12:13:16.234Z,102509.78
2023-05-20T12:15:43.042Z,102500.97
2023-05-20T12:18:09.992Z,102512.94
2023-05-20T12:20:37.406Z,102512.25
2023-05-20T12:23:04.901Z,102505.47
2023-05-20T12:25:31.548Z,102505.13
2023-05-20T12:27:59.295Z,102509.47
2023-05-20T12:30:25.993Z,102500.28
2023-05-20T12:32:52.541Z,102505.75
2023-05-20T12:35:41.689Z,102502.72
2023-05-20T12:38:09.003Z,102498.91
2023-05-20T12:40:36.633Z,102506.31
2023-05-20T12:43:04.841Z,102506.31
2023-05-20T12:45:31.422Z,102504.13
2023-05-20T12:47:58.237Z,102508.25
2023-05-20T12:50:25.782Z,102497.47
2023-05-20T12:52:52.502Z,102498.59
2023-05-20T12:55:19.364Z,102505.97
2023-05-20T12:57:48.126Z,102508.56
2023-05-20T13:00:15.534Z,102502.09
2023-05-20T13:02:43.437Z,102503.44
2023-05-20T13:05:10.688Z,102498.25
2023-05-20T13:07:37.934Z,102490.53
2023-05-20T13:10:05.259Z,102494.63
2023-05-20T13:12:31.828Z,102484.03
2023-05-20T13:14:58.358Z,102480.69
2023-05-20T13:17:25.000Z,102478.69
2023-05-20T13:19:51.721Z,102468.56
2023-05-20T13:22:18.356Z,102462.59
2023-05-20T13:24:45.125Z,102462.97
2023-05-20T13:27:11.998Z,102460.59
2023-05-20T13:29:38.465Z,102466.59
2023-05-20T13:32:05.556Z,102466.38
2023-05-20T13:34:32.052Z,102456.59
2023-05-20T13:36:58.574Z,102464.66
2023-05-20T13:39:25.051Z,102447.97
2023-05-20T13:41:53.590Z,102448.44
2023-05-20T13:44:20.064Z,102445.88
2023-05-20T13:46:46.831Z,102436.41
2023-05-20T13:49:13.455Z,102438.97
2023-05-20T13:51:39.937Z,102438.75
2023-05-20T13:54:06.650Z,102430.44
2023-05-20T13:56:34.076Z,102435.56
2023-05-20T13:59:01.068Z,102433.34
2023-05-20T14:01:30.300Z,102426.78
2023-05-20T14:03:57.099Z,102426.03
2023-05-20T14:06:24.802Z,102417.09
2023-05-20T14:08:54.287Z,102417.97
2023-05-20T14:11:21.860Z,102413.84
2023-05-20T14:13:48.315Z,102419.50
2023-05-20T14:16:15.032Z,102418.47
2023-05-20T14:18:41.806Z,102418.13
2023-05-20T14:21:08.545Z,102411.38
2023-05-20T14:23:35.054Z,102409.56
2023-05-20T14:26:01.597Z,102405.63
2023-05-20T14:28:27.998Z,102408.75
2023-05-20T14:30:54.915Z,102405.56
2023-05-20T14:33:21.381Z,102402.97
2023-05-20T14:35:47.877Z,102392.38
2023-05-20T14:38:14.419Z,102378.34
2023-05-20T14:40:41.117Z,102383.31
2023-05-20T14:43:07.562Z,102375.25
2023-05-20T14:45:34.115Z,102381.16
2023-05-20T14:48:00.606Z,102378.28
2023-05-20T14:50:27.219Z,102374.63
2023-05-20T14:52:53.697Z,102369.88
2023-05-20T14:55:20.208Z,102370.63
2023-05-20T14:57:46.934Z,102366.94
2023-05-20T15:00:13.885Z,102367.63
2023-05-20T15:02:40.404Z,102369.28
2023-05-20T15:05:07.262Z,102369.38
2023-05-20T15:07:33.713Z,102372.78
2023-05-20T15:10:00.349Z,102361.50
2023-05-20T15:12:27.085Z,102361.16
2023-05-20T15:14:53.558Z,102350.50
2023-05-20T15:17:20.238Z,102360.59
2023-05-20T15:19:46.741Z,102362.09
2023-05-20T15:22:13.350Z,102366.81
2023-05-20T15:24:39.834Z,102359.59
2023-05-20T15:27:06.565Z,102368.09
2023-05-20T15:29:33.090Z,102365.78
2023-05-20T15:31:59.904Z,102353.28
2023-05-20T15:34:26.470Z,102352.38
2023-05-20T15:36:53.253Z,102357.03
2023-05-20T15:39:19.719Z,102356.34
2023-05-20T15:41:47.985Z,102358.00
2023-05-20T15:44:14.431Z,102350.00
2023-05-20T15:46:41.324Z,102350.97
2023-05-20T15:49:07.976Z,102349.25
2023-05-20T15:51:34.510Z,102349.75
2023-05-20T15:54:01.037Z,102345.41
2023-05-20T15:56:29.200Z,102339.81
2023-05-20T15:58:56.184Z,102338.22
2023-05-20T16:01:23.583Z,102331.31
2023-05-20T16:03:50.168Z,102339.00
2023-05-20T16:06:17.199Z,102330.84
2023-05-20T16:08:43.705Z,102335.31
2023-05-20T16:11:10.493Z,102343.34
2023-05-20T16:13:37.037Z,102329.47
2023-05-20T16:16:04.014Z,102326.41
2023-05-20T16:18:30.542Z,102331.81
2023-05-20T16:20:58.000Z,102336.91
2023-05-20T16:23:24.922Z,102328.13
2023-05-20T16:25:51.882Z,102323.06
2023-05-20T16:28:18.359Z,102322.50
2023-05-20T16:30:44.886Z,102315.81
2023-05-20T16:33:13.157Z,102309.06
2023-05-20T16:35:40.000Z,102306.00
2023-05-20T16:38:06.673Z,102304.75
2023-05-20T16:40:33.386Z,102312.47
2023-05-20T16:43:00.680Z,102310.22
2023-05-20T16:45:27.475Z,102307.41
2023-05-20T16:47:54.039Z,102305.03
2023-05-20T16:50:21.032Z,102311.22
2023-05-20T16:52:47.495Z,102308.50
2023-05-20T16:55:14.450Z,102308.81
2023-05-20T16:57:42.642Z,102307.16
2023-05-20T17:00:10.630Z,102307.31
2023-05-20T17:02:37.142Z,102311.94
2023-05-20T17:05:04.416Z,102313.94
2023-05-20T17:07:31.024Z,102311.94
2023-05-20T17:09:57.841Z,102308.03
2023-05-20T17:12:24.547Z,102317.66
2023-05-20T17:14:51.227Z,102312.03
2023-05-20T17:17:17.706Z,102307.13
2023-05-20T17:19:44.253Z,102307.25
2023-05-20T17:22:10.770Z,102309.22
2023-05-20T17:24:37.413Z,102308.91
2023-05-20T17:27:05.908Z,102303.94
2023-05-20T17:29:32.582Z,102303.66
2023-05-20T17:31:59.111Z,102302.13
2023-05-20T17:34:25.660Z,102298.53
2023-05-20T17:36:52.166Z,102303.88
2023-05-20T17:39:18.669Z,102298.41
2023-05-20T17:41:45.548Z,102300.38
2023-05-20T17:44:12.215Z,102295.88
2023-05-20T17:46:38.887Z,102299.28
2023-05-20T17:49:05.563Z,102294.50
2023-05-20T17:51:32.700Z,102293.38
2023-05-20T17:53:59.454Z,102287.34
2023-05-20T17:56:26.683Z,102294.22
2023-05-20T17:58:54.935Z,102292.84
2023-05-20T18:01:23.299Z,102292.69
2023-05-20T18:03:50.029Z,102296.38
2023-05-20T18:06:17.958Z,102296.47
2023-05-20T18:08:44.938Z,102296.88
2023-05-20T18:11:11.514Z,102287.81
2023-05-20T18:13:38.291Z,102291.31
2023-05-20T18:16:05.538Z,102292.63
2023-05-20T18:18:32.208Z,102291.03
2023-05-20T18:20:58.717Z,102287.94
2023-05-20T18:23:25.419Z,102284.00
2023-05-20T18:25:51.878Z,102278.56
2023-05-20T18:28:18.489Z,102280.66
2023-05-20T18:30:44.949Z,102278.31
2023-05-20T18:33:11.718Z,102284.78
2023-05-20T18:35:39.128Z,102288.81
2023-05-20T18:38:05.688Z,102287.72
2023-05-20T18:40:32.317Z,102294.59
2023-05-20T18:42:58.997Z,102291.69
2023-05-20T18:45:25.940Z,102293.69
2023-05-20T18:47:54.362Z,102282.63
2023-05-20T18:50:21.082Z,102296.25
2023-05-20T18:52:47.693Z,102301.72
2023-05-20T18:55:14.385Z,102303.31
2023-05-20T18:57:40.838Z,102299.41
2023-05-20T19:00:11.915Z,102307.13
2023-05-20T19:02:40.071Z,102302.38
2023-05-20T19:05:08.462Z,102311.34
2023-05-20T19:07:35.861Z,102310.34
2023-05-20T19:10:03.152Z,102305.03
2023-05-20T19:12:30.053Z,102305.69
2023-05-20T19:14:57.458Z,102302.66
2023-05-20T19:17:24.273Z,102303.34
2023-05-20T19:19:50.959Z,102304.31
2023-05-20T19:22:17.446Z,102317.94
2023-05-20T19:24:44.274Z,102311.13
2023-05-20T19:27:11.121Z,102314.06
2023-05-20T19:29:37.617Z,102323.75
2023-05-20T19:32:04.446Z,102322.38
2023-05-20T19:34:31.165Z,102321.22
2023-05-20T19:36:57.839Z,102321.66
2023-05-20T19:39:24.365Z,102328.00
2023-05-20T19:41:50.858Z,102331.09
2023-05-20T19:44:17.501Z,102322.84
2023-05-20T19:46:44.137Z,102328.59
2023-05-20T19:49:11.100Z,102317.28
2023-05-20T19:51:37.852Z,102325.22
2023-05-20T19:54:04.667Z,102328.34
2023-05-20T19:56:31.517Z,102330.41
2023-05-20T19:59:01.511Z,102332.53
2023-05-20T20:01:28.625Z,102328.34
2023-05-20T20:03:55.491Z,102326.94
2023-05-20T20:06:22.328Z,102323.56
2023-05-20T20:08:49.313Z,102328.88
2023-05-20T20:11:16.020Z,102321.91
2023-05-20T20:13:42.728Z,102320.22
2023-05-20T20:16:09.425Z,102319.13
2023-05-20T20:18:35.964Z,102313.81
2023-05-20T20:21:05.852Z,102308.50
2023-05-20T20:23:32.909Z,102313.63
2023-05-20T20:25:59.583Z,102314.22
2023-05-20T20:28:26.344Z,102318.41
2023-05-20T20:30:52.962Z,102314.09
2023-05-20T20:33:19.661Z,102322.75
2023-05-20T20:35:46.715Z,102323.47
2023-05-20T20:38:13.258Z,102328.34
2023-05-20T20:40:41.737Z,102322.63
2023-05-20T20:43:10.851Z,102315.06
2023-05-20T20:45:37.401Z,102318.97
2023-05-20T20:48:07.799Z,102315.78
2023-05-20T20:50:35.694Z,102320.81
2023-05-20T20:53:02.466Z,102318.84
2023-05-20T20:55:31.948Z,102312.25
2023-05-20T20:58:02.665Z,102308.47
2023-05-20T21:00:29.521Z,102309.19
2023-05-20T21:02:56.262Z,102304.41
2023-05-20T21:05:26.319Z,102303.44
2023-05-20T21:07:58.368Z,102301.75
2023-05-20T21:10:29.208Z,102302.31
2023-05-20T21:12:59.186Z,102306.22
2023-05-20T21:15:27.260Z,102305.78
2023-05-20T21:17:53.843Z,102307.06
2023-05-20T21:20:21.268Z,102300.75
2023-05-20T21:22:48.450Z,102299.50
2023-05-20T21:25:14.951Z,102294.19
2023-05-20T21:27:41.881Z,102305.38
2023-05-20T21:30:10.701Z,102294.31
2023-05-20T21:32:37.856Z,102296.97
2023-05-20T21:35:04.911Z,102293.78
2023-05-20T21:37:31.454Z,102290.41
2023-05-20T21:39:57.914Z,102287.88
2023-05-20T21:42:24.599Z,102283.25
2023-05-20T21:44:51.508Z,102274.84
2023-05-20T21:47:19.551Z,102276.38
2023-05-20T21:49:47.957Z,102273.72
2023-05-20T21:52:14.430Z,102274.28
2023-05-20T21:54:41.484Z,102273.16
2023-05-20T21:57:08.131Z,102277.06
2023-05-20T21:59:35.127Z,102260.84
2023-05-20T22:02:01.763Z,102263.38
2023-05-20T22:04:28.684Z,102263.91
2023-05-20T22:06:56.408Z,102266.16
2023-05-20T22:09:23.147Z,102257.59
2023-05-20T22:11:49.658Z,102263.06
2023-05-20T22:14:17.106Z,102265.53
2023-05-20T22:16:48.296Z,102270.69
2023-05-20T22:19:15.884Z,102263.59
2023-05-20T22:21:50.027Z,102263.88
2023-05-20T22:24:18.248Z,102270.84
2023-05-20T22:26:45.112Z,102259.81
2023-05-20T22:29:12.118Z,102255.75
2023-05-20T22:31:38.654Z,102258.66
2023-05-20T22:34:05.694Z,102257.69
2023-05-20T22:36:36.243Z,102253.50
2023-05-20T22:39:04.446Z,102258.25
2023-05-20T22:41:30.955Z,102244.00
2023-05-20T22:43:57.670Z,102242.72
2023-05-20T22:46:25.102Z,102232.50
2023-05-20T22:48:55.410Z,102237.81
2023-05-20T22:51:22.725Z,102232.22
2023-05-20T22:53:49.498Z,102228.31
2023-05-20T22:56:16.300Z,102223.00
2023-05-20T22:58:43.659Z,102223.41
2023-05-20T23:01:10.431Z,102220.91
2023-05-20T23:03:38.297Z,102224.50
2023-05-20T23:06:04.885Z,102222.84
2023-05-20T23:08:31.555Z,102219.47
2023-05-20T23:10:58.101Z,102215.28
2023-05-20T23:13:25.062Z,102219.03
2023-05-20T23:15:51.766Z,102211.50
2023-05-20T23:18:18.528Z,102210.69
2023-05-20T23:20:45.151Z,102210.09
2023-05-20T23:23:11.995Z,102206.22
2023-05-20T23:25:39.335Z,102201.19
2023-05-20T23:28:06.290Z,102203.84
2023-05-20T23:30:32.807Z,102195.31
2023-05-20T23:32:59.850Z,102191.09
2023-05-20T23:35:26.394Z,102187.75
2023-05-20T23:37:52.945Z,102180.25
2023-05-20T23:40:19.414Z,102174.66
2023-05-20T23:42:46.155Z,102180.47
2023-05-20T23:45:13.118Z,102179.63
2023-05-20T23:47:39.739Z,102176.53
2023-05-20T23:50:06.582Z,102167.88
2023-05-20T23:52:33.394Z,102171.66
2023-05-20T23:55:00.227Z,102169.28
2023-05-20T23:57:26.891Z,102174.03
2023-05-20T23:59:53.347Z,102169.09
